TimeCST,TemperatureF,Dew PointF,Humidity,Sea Level PressureIn,VisibilityMPH,Wind Direction,Wind SpeedMPH,Gust SpeedMPH,PrecipitationIn,Events,Conditions,WindDirDegrees,DateUTC
12:55 AM,21.7,12.2,67,30.11,10.0,WNW,8.1,-,N/A,,Clear,290,2011-11-17 06:55:00
1:55 AM,20.1,11.8,70,30.12,10.0,West,8.1,-,N/A,,Clear,280,2011-11-17 07:55:00
2:55 AM,17.6,11.5,77,30.12,10.0,West,9.2,-,N/A,,Clear,270,2011-11-17 08:55:00
3:55 AM,18.1,12.6,79,30.13,10.0,West,10.4,-,N/A,,Clear,270,2011-11-17 09:55:00
4:55 AM,16.9,12.0,81,30.13,10.0,West,8.1,-,N/A,,Clear,270,2011-11-17 10:55:00
5:55 AM,17.2,12.4,81,30.14,10.0,West,8.1,-,N/A,,Clear,270,2011-11-17 11:55:00
6:55 AM,17.6,12.7,81,30.15,10.0,West,9.2,-,N/A,,Clear,270,2011-11-17 12:55:00
7:55 AM,20.1,14.0,77,30.16,10.0,West,11.5,-,N/A,,Clear,280,2011-11-17 13:55:00
8:55 AM,22.5,14.2,71,30.18,10.0,WNW,13.8,19.6,N/A,,Clear,290,2011-11-17 14:55:00
9:10 AM,23.0,14.0,68,30.13,10.0,West,10.4,19.6,N/A,,Mostly Cloudy,280,2011-11-17 15:10:00
9:55 AM,23.0,14.0,68,30.19,10.0,WNW,17.3,-,N/A,,Mostly Cloudy,290,2011-11-17 15:55:00
10:30 AM,24.8,14.0,64,30.19,10.0,West,10.4,19.6,N/A,,Scattered Clouds,280,2011-11-17 16:30:00
10:55 AM,26.6,14.0,59,30.19,10.0,WNW,13.8,-,N/A,,Partly Cloudy,290,2011-11-17 16:55:00
11:55 AM,28.4,14.0,55,30.18,10.0,West,9.2,17.3,N/A,,Partly Cloudy,280,2011-11-17 17:55:00
12:55 PM,30.2,12.2,47,30.16,10.0,West,12.7,-,N/A,,Partly Cloudy,260,2011-11-17 18:55:00
1:55 PM,32.0,10.4,41,30.15,10.0,WNW,13.8,-,N/A,,Partly Cloudy,290,2011-11-17 19:55:00
2:55 PM,30.2,8.6,40,30.16,10.0,West,10.4,-,N/A,,Scattered Clouds,270,2011-11-17 20:55:00
3:55 PM,28.4,8.6,43,30.16,10.0,West,8.1,-,N/A,,Partly Cloudy,270,2011-11-17 21:55:00
4:55 PM,21.2,10.4,63,30.16,10.0,SW,3.5,-,N/A,,Partly Cloudy,230,2011-11-17 22:55:00
5:55 PM,17.6,10.4,73,30.17,10.0,ESE,3.5,-,N/A,,Partly Cloudy,120,2011-11-17 23:55:00
6:55 PM,17.6,10.4,73,30.16,10.0,Calm,Calm,-,N/A,,Scattered Clouds,0,2011-11-18 00:55:00
7:55 PM,15.8,10.4,79,30.15,10.0,SSE,5.8,-,N/A,,Scattered Clouds,150,2011-11-18 01:55:00
8:55 PM,17.6,14.0,86,30.14,10.0,SE,5.8,-,N/A,,Mostly Cloudy,140,2011-11-18 02:55:00
9:55 PM,17.6,15.8,93,30.12,10.0,SSE,4.6,-,N/A,,Overcast,150,2011-11-18 03:55:00
10:55 PM,19.4,14.0,80,30.10,10.0,SE,3.5,-,N/A,,Mostly Cloudy,140,2011-11-18 04:55:00
11:55 PM,23.9,16.2,72,30.07,10.0,SE,8.1,-,N/A,,Overcast,140,2011-11-18 05:55:00